createdAt,value
2018-05-31T00:00:31.219Z,24.32
2018-05-31T00:01:29.768Z,24.33
2018-05-31T00:02:29.028Z,24.33
2018-05-31T00:03:28.978Z,24.33
2018-05-31T00:04:29.029Z,24.35
2018-05-31T00:05:30.397Z,24.35
2018-05-31T00:06:28.993Z,24.35
2018-05-31T00:07:28.990Z,24.32
2018-05-31T00:08:30.013Z,24.33
2018-05-31T00:09:29.115Z,24.33
2018-05-31T00:10:29.023Z,24.32
2018-05-31T00:11:29.110Z,24.3
2018-05-31T00:12:29.070Z,24.32
2018-05-31T00:13:29.099Z,24.29
2018-05-31T00:14:30.800Z,24.29
2018-05-31T00:15:29.065Z,24.24
2018-05-31T00:16:29.103Z,24.26
2018-05-31T00:17:29.105Z,24.23
2018-05-31T00:18:29.085Z,24.23
2018-05-31T00:19:29.106Z,24.21
2018-05-31T00:20:29.058Z,24.21
2018-05-31T00:21:29.050Z,24.19
2018-05-31T00:22:29.084Z,24.16
2018-05-31T00:23:30.208Z,24.16
2018-05-31T00:24:29.033Z,24.16
2018-05-31T00:25:29.140Z,24.16
2018-05-31T00:26:29.036Z,24.15
2018-05-31T00:27:29.103Z,24.13
2018-05-31T00:28:29.055Z,24.09
2018-05-31T00:29:29.056Z,24.08
2018-05-31T00:30:29.112Z,24.06
2018-05-31T00:31:29.078Z,24.03
2018-05-31T00:32:29.964Z,24.06
2018-05-31T00:33:29.190Z,24.02
2018-05-31T00:34:29.036Z,23.98
2018-05-31T00:35:29.169Z,23.96
2018-05-31T00:36:29.059Z,23.98
2018-05-31T00:37:29.115Z,23.93
2018-05-31T00:38:29.083Z,23.95
2018-05-31T00:39:29.183Z,23.92
2018-05-31T00:40:29.078Z,23.93
2018-05-31T00:41:30.024Z,23.91
2018-05-31T00:42:29.214Z,23.91
2018-05-31T00:43:29.106Z,23.89
2018-05-31T00:44:29.127Z,23.87
2018-05-31T00:45:29.082Z,23.88
2018-05-31T00:46:29.715Z,23.81
2018-05-31T00:47:29.243Z,23.81
2018-05-31T00:48:29.057Z,23.67
2018-05-31T00:49:29.166Z,23.43
2018-05-31T00:50:29.125Z,23.41
2018-05-31T00:51:29.134Z,23.53
2018-05-31T00:52:29.304Z,23.54
2018-05-31T00:53:29.191Z,23.56
2018-05-31T00:54:29.074Z,23.54
2018-05-31T00:55:29.175Z,23.47
2018-05-31T00:56:29.135Z,23.47
2018-05-31T00:57:29.133Z,23.41
2018-05-31T00:58:28.940Z,23.39
2018-05-31T00:59:28.944Z,23.34
2018-05-31T01:00:30.371Z,23.3
2018-05-31T01:01:28.963Z,23.26
2018-05-31T01:02:29.284Z,23.13
2018-05-31T01:03:29.125Z,22.96
2018-05-31T01:04:29.131Z,22.82
2018-05-31T01:05:28.950Z,22.7
2018-05-31T01:06:28.993Z,22.6
2018-05-31T01:07:29.319Z,22.68
2018-05-31T01:08:28.952Z,22.71
2018-05-31T01:09:30.160Z,22.72
2018-05-31T01:10:28.989Z,22.74
2018-05-31T01:11:28.998Z,22.72
2018-05-31T01:12:28.986Z,22.76
2018-05-31T01:13:29.247Z,22.78
2018-05-31T01:14:28.977Z,22.76
2018-05-31T01:15:28.984Z,22.75
2018-05-31T01:16:28.976Z,22.78
2018-05-31T01:17:29.012Z,22.79
2018-05-31T01:18:30.212Z,22.78
2018-05-31T01:19:29.039Z,22.78
2018-05-31T01:20:29.236Z,22.82
2018-05-31T01:21:29.291Z,22.82
2018-05-31T01:22:29.003Z,22.82
2018-05-31T01:23:29.247Z,22.85
2018-05-31T01:24:29.010Z,22.82
2018-05-31T01:25:28.982Z,22.81
2018-05-31T01:26:29.026Z,22.79
2018-05-31T01:27:29.847Z,22.79
2018-05-31T01:28:28.998Z,22.79
2018-05-31T01:29:28.951Z,22.79
2018-05-31T01:30:28.978Z,22.81
2018-05-31T01:31:29.006Z,22.81
2018-05-31T01:32:28.990Z,22.79
2018-05-31T01:33:28.987Z,22.82
2018-05-31T01:34:28.978Z,22.82
2018-05-31T01:35:28.990Z,22.81
2018-05-31T01:36:29.821Z,22.79
2018-05-31T01:37:28.978Z,22.76
2018-05-31T01:38:28.971Z,22.72
2018-05-31T01:39:28.966Z,22.74
2018-05-31T01:40:28.955Z,22.74
2018-05-31T01:41:29.023Z,22.75
2018-05-31T01:42:29.042Z,22.76
2018-05-31T01:43:28.982Z,22.75
2018-05-31T01:44:28.965Z,22.78
2018-05-31T01:45:29.673Z,22.76
2018-05-31T01:46:28.988Z,22.75
2018-05-31T01:47:28.996Z,22.74
2018-05-31T01:48:28.967Z,22.72
2018-05-31T01:49:28.997Z,22.74
2018-05-31T01:50:29.001Z,22.72
2018-05-31T01:51:29.016Z,22.75
2018-05-31T01:52:28.965Z,22.74
2018-05-31T01:53:29.088Z,22.71
2018-05-31T01:54:29.461Z,22.71
2018-05-31T01:55:30.165Z,22.71
2018-05-31T01:56:28.996Z,22.7
2018-05-31T01:57:29.029Z,22.7
2018-05-31T01:58:28.986Z,22.65
2018-05-31T01:59:29.004Z,22.68
2018-05-31T02:00:29.034Z,22.65
2018-05-31T02:01:28.988Z,22.7
2018-05-31T02:02:29.012Z,22.67
2018-05-31T02:03:29.089Z,22.61
2018-05-31T02:04:29.909Z,22.63
2018-05-31T02:05:28.995Z,22.54
2018-05-31T02:06:28.981Z,22.54
2018-05-31T02:07:28.987Z,22.54
2018-05-31T02:08:29.022Z,22.57
2018-05-31T02:09:29.030Z,22.51
2018-05-31T02:10:28.992Z,22.51
2018-05-31T02:11:29.004Z,22.44
2018-05-31T02:12:29.216Z,22.4
2018-05-31T02:13:30.297Z,22.36
2018-05-31T02:14:29.184Z,22.34
2018-05-31T02:15:28.998Z,22.26
2018-05-31T02:16:29.013Z,22.26
2018-05-31T02:17:29.041Z,22.24
2018-05-31T02:18:29.126Z,22.16
2018-05-31T02:19:28.999Z,22.09
2018-05-31T02:20:29.026Z,22.05
2018-05-31T02:21:29.033Z,22.01
2018-05-31T02:22:30.341Z,22.01
2018-05-31T02:23:29.081Z,21.99
2018-05-31T02:24:29.039Z,21.95
2018-05-31T02:25:29.031Z,21.95
2018-05-31T02:26:29.149Z,21.95
2018-05-31T02:27:29.033Z,21.94
2018-05-31T02:28:28.991Z,21.98
2018-05-31T02:29:29.059Z,21.92
2018-05-31T02:30:29.021Z,21.91
2018-05-31T02:31:30.303Z,21.92
2018-05-31T02:32:28.992Z,21.95
2018-05-31T02:33:29.035Z,21.92
2018-05-31T02:34:29.057Z,21.89
2018-05-31T02:35:29.019Z,21.84
2018-05-31T02:36:29.024Z,21.82
2018-05-31T02:37:29.026Z,21.71
2018-05-31T02:38:29.077Z,21.68
2018-05-31T02:39:29.016Z,21.71
2018-05-31T02:40:30.025Z,21.69
2018-05-31T02:41:29.000Z,21.71
2018-05-31T02:42:29.014Z,21.78
2018-05-31T02:43:29.056Z,21.77
2018-05-31T02:44:29.029Z,21.81
2018-05-31T02:45:29.078Z,21.79
2018-05-31T02:46:29.028Z,21.78
2018-05-31T02:47:29.039Z,21.77
2018-05-31T02:48:29.095Z,21.78
2018-05-31T02:49:30.034Z,21.81
2018-05-31T02:50:29.068Z,21.78
2018-05-31T02:51:29.154Z,21.77
2018-05-31T02:52:29.137Z,21.75
2018-05-31T02:53:29.105Z,21.74
2018-05-31T02:54:29.144Z,21.72
2018-05-31T02:55:29.102Z,21.74
2018-05-31T02:56:29.090Z,21.72
2018-05-31T02:57:29.162Z,21.72
2018-05-31T02:58:30.094Z,21.74
2018-05-31T02:59:29.180Z,21.75
2018-05-31T03:00:29.185Z,21.75
2018-05-31T03:01:29.189Z,21.74
2018-05-31T03:02:29.182Z,21.69
2018-05-31T03:03:29.226Z,21.69
2018-05-31T03:04:29.177Z,21.71
2018-05-31T03:05:29.162Z,21.71
2018-05-31T03:06:29.185Z,21.72
2018-05-31T03:07:30.255Z,21.74
2018-05-31T03:08:29.238Z,21.72
2018-05-31T03:09:29.544Z,21.72
2018-05-31T03:10:29.156Z,21.75
2018-05-31T03:11:29.191Z,21.72
2018-05-31T03:12:29.171Z,21.74
2018-05-31T03:13:29.179Z,21.72
2018-05-31T03:14:29.178Z,21.72
2018-05-31T03:15:29.285Z,21.71
2018-05-31T03:16:30.110Z,21.68
2018-05-31T03:17:29.164Z,21.67
2018-05-31T03:18:29.201Z,21.65
2018-05-31T03:19:29.207Z,21.65
2018-05-31T03:20:29.196Z,21.62
2018-05-31T03:21:29.193Z,21.62
2018-05-31T03:22:29.559Z,21.62
2018-05-31T03:23:29.249Z,21.64
2018-05-31T03:24:29.212Z,21.6
2018-05-31T03:25:30.062Z,21.58
2018-05-31T03:26:29.169Z,21.56
2018-05-31T03:27:29.277Z,21.57
2018-05-31T03:28:29.196Z,21.57
2018-05-31T03:29:29.190Z,21.54
2018-05-31T03:30:29.201Z,21.56
2018-05-31T03:31:29.218Z,21.53
2018-05-31T03:32:29.201Z,21.51
2018-05-31T03:33:29.216Z,21.51
2018-05-31T03:34:29.836Z,21.49
2018-05-31T03:35:29.220Z,21.5
2018-05-31T03:36:29.241Z,21.47
2018-05-31T03:37:29.184Z,21.47
2018-05-31T03:38:29.223Z,21.44
2018-05-31T03:39:29.231Z,21.43
2018-05-31T03:40:29.261Z,21.43
2018-05-31T03:41:29.217Z,21.4
2018-05-31T03:42:29.280Z,21.29
2018-05-31T03:43:30.213Z,21.27
2018-05-31T03:44:29.237Z,21.29
2018-05-31T03:45:29.240Z,21.27
2018-05-31T03:46:29.175Z,21.26
2018-05-31T03:47:29.421Z,21.24
2018-05-31T03:48:29.052Z,21.26
2018-05-31T03:49:29.062Z,21.26
2018-05-31T03:50:29.236Z,21.23
2018-05-31T03:51:29.212Z,21.22
2018-05-31T03:52:29.965Z,21.26
2018-05-31T03:53:29.765Z,21.26
2018-05-31T03:54:29.237Z,21.29
2018-05-31T03:55:29.097Z,21.26
2018-05-31T03:56:29.111Z,21.26
2018-05-31T03:57:29.119Z,21.29
2018-05-31T03:58:29.091Z,21.32
2018-05-31T03:59:29.275Z,21.26
2018-05-31T04:00:29.312Z,21.26
2018-05-31T04:01:30.515Z,21.22
2018-05-31T04:02:29.104Z,21.13
2018-05-31T04:03:29.123Z,20.95
2018-05-31T04:04:29.077Z,20.87
2018-05-31T04:05:29.087Z,20.81
2018-05-31T04:06:29.092Z,20.87
2018-05-31T04:07:29.102Z,20.88
2018-05-31T04:08:29.112Z,20.87
2018-05-31T04:09:29.091Z,20.74
2018-05-31T04:10:30.433Z,20.82
2018-05-31T04:11:29.090Z,20.84
2018-05-31T04:12:29.083Z,20.85
2018-05-31T04:13:29.105Z,20.82
2018-05-31T04:14:29.113Z,20.87
2018-05-31T04:15:29.107Z,20.87
2018-05-31T04:16:29.099Z,20.81
2018-05-31T04:17:29.110Z,20.71
2018-05-31T04:18:29.162Z,20.64
2018-05-31T04:19:30.050Z,20.65
2018-05-31T04:20:29.202Z,20.7
2018-05-31T04:21:29.516Z,20.72
2018-05-31T04:22:29.064Z,20.75
2018-05-31T04:23:29.081Z,20.78
2018-05-31T04:24:29.052Z,20.79
2018-05-31T04:25:29.173Z,20.81
2018-05-31T04:26:29.152Z,20.84
2018-05-31T04:27:29.117Z,20.87
2018-05-31T04:28:30.205Z,20.87
2018-05-31T04:29:29.170Z,20.87
2018-05-31T04:30:29.225Z,20.89
2018-05-31T04:31:29.105Z,20.85
2018-05-31T04:32:29.127Z,20.87
2018-05-31T04:33:29.126Z,20.92
2018-05-31T04:34:29.222Z,20.94
2018-05-31T04:35:29.129Z,20.95
2018-05-31T04:36:29.181Z,20.84
2018-05-31T04:37:30.170Z,20.89
2018-05-31T04:38:29.091Z,20.92
2018-05-31T04:39:29.094Z,20.88
2018-05-31T04:40:29.121Z,20.84
2018-05-31T04:41:29.105Z,20.84
2018-05-31T04:42:29.325Z,20.85
2018-05-31T04:43:29.127Z,20.87
2018-05-31T04:44:29.140Z,20.88
2018-05-31T04:45:29.083Z,20.89
2018-05-31T04:46:30.222Z,20.87
2018-05-31T04:47:29.136Z,20.94
2018-05-31T04:48:29.124Z,20.95
2018-05-31T04:49:29.130Z,20.88
2018-05-31T04:50:29.125Z,20.82
2018-05-31T04:51:29.089Z,20.87
2018-05-31T04:52:29.142Z,20.87
2018-05-31T04:53:29.179Z,20.87
2018-05-31T04:54:29.119Z,20.79
2018-05-31T04:55:30.284Z,20.82
2018-05-31T04:56:29.157Z,20.87
2018-05-31T04:57:29.121Z,20.89
2018-05-31T04:58:29.093Z,20.91
2018-05-31T04:59:29.162Z,20.87
2018-05-31T05:00:29.286Z,20.82
2018-05-31T05:01:29.120Z,20.87
2018-05-31T05:02:29.188Z,20.91
2018-05-31T05:03:29.158Z,20.94
2018-05-31T05:04:30.141Z,20.95
2018-05-31T05:05:29.147Z,20.99
2018-05-31T05:06:29.174Z,20.99
2018-05-31T05:07:29.116Z,20.92
2018-05-31T05:08:29.109Z,20.89
2018-05-31T05:09:29.110Z,20.84
2018-05-31T05:10:29.119Z,20.75
2018-05-31T05:11:29.109Z,20.78
2018-05-31T05:12:29.137Z,20.81
2018-05-31T05:13:30.102Z,20.87
2018-05-31T05:14:29.132Z,20.82
2018-05-31T05:15:29.107Z,20.82
2018-05-31T05:16:29.103Z,20.82
2018-05-31T05:17:29.149Z,20.81
2018-05-31T05:18:29.101Z,20.85
2018-05-31T05:19:29.125Z,20.78
2018-05-31T05:20:29.180Z,20.74
2018-05-31T05:21:29.164Z,20.71
2018-05-31T05:22:30.062Z,20.62
2018-05-31T05:23:29.186Z,20.61
2018-05-31T05:24:29.162Z,20.64
2018-05-31T05:25:29.152Z,20.71
2018-05-31T05:26:29.405Z,20.78
2018-05-31T05:27:29.150Z,20.81
2018-05-31T05:28:29.170Z,20.85
2018-05-31T05:29:29.139Z,20.85
2018-05-31T05:30:29.122Z,20.85
2018-05-31T05:31:30.433Z,20.91
2018-05-31T05:32:29.298Z,20.92
2018-05-31T05:33:29.159Z,20.89
2018-05-31T05:34:29.213Z,20.91
2018-05-31T05:35:29.148Z,20.92
2018-05-31T05:36:29.274Z,20.95
2018-05-31T05:37:29.173Z,20.92
2018-05-31T05:38:29.240Z,20.96
2018-05-31T05:39:29.200Z,20.96
2018-05-31T05:40:30.293Z,20.98
2018-05-31T05:41:29.241Z,21.01
2018-05-31T05:42:29.236Z,21.03
2018-05-31T05:43:29.339Z,21.09
2018-05-31T05:44:29.220Z,21.07
2018-05-31T05:45:29.273Z,21.1
2018-05-31T05:46:29.229Z,21.15
2018-05-31T05:47:29.252Z,21.15
2018-05-31T05:48:29.267Z,21.17
2018-05-31T05:49:30.558Z,21.12
2018-05-31T05:50:29.409Z,21.09
2018-05-31T05:51:29.274Z,21.15
2018-05-31T05:52:29.354Z,21.17
2018-05-31T05:53:29.265Z,21.19
2018-05-31T05:54:29.269Z,21.15
2018-05-31T05:55:29.265Z,21.16
2018-05-31T05:56:29.583Z,21.2
2018-05-31T05:57:29.301Z,21.22
2018-05-31T05:58:30.417Z,21.23
2018-05-31T05:59:29.293Z,21.26
2018-05-31T06:00:29.350Z,21.32
2018-05-31T06:01:29.335Z,21.32
2018-05-31T06:02:29.309Z,21.26
2018-05-31T06:03:29.303Z,21.24
2018-05-31T06:04:29.287Z,21.24
2018-05-31T06:05:29.471Z,21.32
2018-05-31T06:06:29.317Z,21.29
2018-05-31T06:07:29.311Z,21.3
2018-05-31T06:08:29.290Z,21.34
2018-05-31T06:09:29.326Z,21.4
2018-05-31T06:10:29.282Z,21.41
2018-05-31T06:11:29.318Z,21.44
2018-05-31T06:12:29.332Z,21.33
2018-05-31T06:13:30.162Z,21.39
2018-05-31T06:14:29.310Z,21.41
2018-05-31T06:15:30.441Z,21.43
2018-05-31T06:16:29.362Z,21.49
2018-05-31T06:17:29.361Z,21.5
2018-05-31T06:18:29.294Z,21.5
2018-05-31T06:19:29.317Z,21.54
2018-05-31T06:20:29.291Z,21.54
2018-05-31T06:21:29.296Z,21.53
2018-05-31T06:22:29.301Z,21.54
2018-05-31T06:23:29.308Z,21.57
2018-05-31T06:24:30.345Z,21.6
2018-05-31T06:25:29.286Z,21.54
2018-05-31T06:26:30.131Z,21.58
2018-05-31T06:27:29.296Z,21.62
2018-05-31T06:28:29.306Z,21.67
2018-05-31T06:29:29.407Z,21.74
2018-05-31T06:30:29.351Z,21.67
2018-05-31T06:31:29.326Z,21.62
2018-05-31T06:32:29.370Z,21.67
2018-05-31T06:33:30.356Z,21.68
2018-05-31T06:34:29.142Z,21.71
2018-05-31T06:35:29.152Z,21.74
2018-05-31T06:36:29.162Z,21.78
2018-05-31T06:37:29.554Z,21.81
2018-05-31T06:38:29.668Z,21.85
2018-05-31T06:39:29.152Z,21.86
2018-05-31T06:40:29.340Z,21.89
2018-05-31T06:41:29.149Z,21.89
2018-05-31T06:42:29.496Z,21.91
2018-05-31T06:43:29.165Z,21.79
2018-05-31T06:44:29.167Z,21.85
2018-05-31T06:45:29.146Z,21.91
2018-05-31T06:46:29.155Z,21.91
2018-05-31T06:47:29.182Z,21.92
2018-05-31T06:48:29.144Z,21.89
2018-05-31T06:49:29.143Z,21.86
2018-05-31T06:50:29.150Z,21.89
2018-05-31T06:51:29.446Z,21.91
2018-05-31T06:52:29.215Z,21.89
2018-05-31T06:53:29.150Z,21.96
2018-05-31T06:54:29.236Z,22.01
2018-05-31T06:55:29.145Z,22.06
2018-05-31T06:56:29.163Z,22.06
2018-05-31T06:57:29.177Z,22.06
2018-05-31T06:58:29.187Z,22.08
2018-05-31T06:59:29.196Z,22.09
2018-05-31T07:00:29.190Z,22.12
2018-05-31T07:01:29.175Z,22.17
2018-05-31T07:02:29.290Z,22.23
2018-05-31T07:03:29.494Z,22.29
2018-05-31T07:04:29.169Z,22.34
2018-05-31T07:05:29.150Z,22.39
2018-05-31T07:06:29.165Z,22.41
2018-05-31T07:07:29.177Z,22.43
2018-05-31T07:08:29.179Z,22.47
2018-05-31T07:09:29.187Z,22.48
2018-05-31T07:10:29.191Z,22.5
2018-05-31T07:11:29.186Z,22.53
2018-05-31T07:12:29.223Z,22.57
2018-05-31T07:13:29.323Z,22.64
2018-05-31T07:14:29.367Z,22.65
2018-05-31T07:15:29.333Z,22.67
2018-05-31T07:16:29.177Z,22.71
2018-05-31T07:17:29.227Z,22.71
2018-05-31T07:18:29.237Z,22.75
2018-05-31T07:19:29.169Z,22.79
2018-05-31T07:20:29.180Z,22.81
2018-05-31T07:21:29.172Z,22.86
2018-05-31T07:22:29.172Z,22.88
2018-05-31T07:23:29.178Z,22.92
2018-05-31T07:24:29.165Z,22.91
2018-05-31T07:25:29.207Z,22.85
2018-05-31T07:26:29.190Z,22.88
2018-05-31T07:27:29.179Z,22.91
2018-05-31T07:28:29.226Z,22.94
2018-05-31T07:29:29.182Z,22.95
2018-05-31T07:30:29.230Z,22.98
2018-05-31T07:31:29.207Z,23.02
2018-05-31T07:32:29.197Z,23.02
2018-05-31T07:33:29.210Z,23.07
2018-05-31T07:34:29.203Z,23.11
2018-05-31T07:35:29.168Z,23.15
2018-05-31T07:36:29.196Z,23.16
2018-05-31T07:37:29.307Z,23.2
2018-05-31T07:38:29.182Z,23.25
2018-05-31T07:39:29.194Z,23.27
2018-05-31T07:40:29.169Z,23.32
2018-05-31T07:41:29.168Z,23.37
2018-05-31T07:42:29.213Z,23.39
2018-05-31T07:43:29.423Z,23.44
2018-05-31T07:44:29.203Z,23.47
2018-05-31T07:45:29.210Z,23.5
2018-05-31T07:46:29.932Z,23.46
2018-05-31T07:47:29.196Z,23.48
2018-05-31T07:48:29.223Z,23.43
2018-05-31T07:49:29.252Z,23.44
2018-05-31T07:50:29.370Z,23.41
2018-05-31T07:51:29.263Z,23.43
2018-05-31T07:52:29.204Z,23.47
2018-05-31T07:53:29.190Z,23.47
2018-05-31T07:54:29.195Z,23.53
2018-05-31T07:55:29.401Z,23.57
2018-05-31T07:56:29.233Z,23.6
2018-05-31T07:57:29.231Z,23.61
2018-05-31T07:58:29.267Z,23.67
2018-05-31T07:59:29.201Z,23.69
2018-05-31T08:00:29.206Z,23.69
2018-05-31T08:01:29.253Z,23.62
2018-05-31T08:02:29.221Z,23.48
2018-05-31T08:03:29.267Z,23.57
2018-05-31T08:04:29.247Z,23.54
2018-05-31T08:05:29.197Z,23.58
2018-05-31T08:06:29.224Z,23.64
2018-05-31T08:07:29.233Z,23.69
2018-05-31T08:08:29.263Z,23.77
2018-05-31T08:09:29.221Z,23.82
2018-05-31T08:10:29.247Z,23.87
2018-05-31T08:11:29.207Z,23.93
2018-05-31T08:12:29.250Z,23.93
2018-05-31T08:13:29.222Z,23.98
2018-05-31T08:14:29.242Z,23.92
2018-05-31T08:15:29.196Z,23.95
2018-05-31T08:16:29.232Z,23.95
2018-05-31T08:17:29.254Z,23.92
2018-05-31T08:18:29.217Z,23.93
2018-05-31T08:19:29.233Z,23.89
2018-05-31T08:20:29.208Z,23.77
2018-05-31T08:21:29.211Z,23.8
2018-05-31T08:22:29.257Z,23.82
2018-05-31T08:23:29.230Z,23.81
2018-05-31T08:24:29.211Z,23.84
2018-05-31T08:25:29.281Z,23.87
2018-05-31T08:26:29.318Z,23.87
2018-05-31T08:27:29.217Z,23.93
2018-05-31T08:28:29.221Z,23.99
2018-05-31T08:29:29.220Z,24.06
2018-05-31T08:30:29.236Z,24.13
2018-05-31T08:31:29.484Z,24.2
2018-05-31T08:32:29.251Z,24.23
2018-05-31T08:33:29.262Z,24.32
2018-05-31T08:34:29.337Z,24.29
2018-05-31T08:35:29.271Z,24.29
2018-05-31T08:36:29.279Z,24.12
2018-05-31T08:37:29.317Z,24.15
2018-05-31T08:38:29.458Z,24.17
2018-05-31T08:39:29.357Z,24.2
2018-05-31T08:40:29.376Z,24.26
2018-05-31T08:41:29.486Z,24.33
2018-05-31T08:42:29.359Z,24.36
2018-05-31T08:43:29.323Z,24.44
2018-05-31T08:44:29.361Z,24.53
2018-05-31T08:45:29.374Z,24.46
2018-05-31T08:46:29.344Z,24.39
2018-05-31T08:47:29.346Z,24.36
2018-05-31T08:48:29.352Z,24.17
2018-05-31T08:49:29.376Z,24.23
2018-05-31T08:50:29.367Z,24.21
2018-05-31T08:51:29.373Z,24.24
2018-05-31T08:52:29.376Z,24.24
2018-05-31T08:53:29.391Z,24.16
2018-05-31T08:54:29.401Z,24.13
2018-05-31T08:55:29.460Z,24.2
2018-05-31T08:56:29.345Z,24.26
2018-05-31T08:57:29.349Z,24.32
2018-05-31T08:58:30.706Z,24.37
2018-05-31T08:59:29.392Z,24.44
2018-05-31T09:00:29.389Z,24.5
2018-05-31T09:01:29.479Z,24.58
2018-05-31T09:02:29.448Z,24.64
2018-05-31T09:03:29.409Z,24.72
2018-05-31T09:04:29.400Z,24.64
2018-05-31T09:05:29.366Z,24.75
2018-05-31T09:06:29.486Z,24.74
2018-05-31T09:07:29.373Z,24.78
2018-05-31T09:08:29.401Z,24.78
2018-05-31T09:09:29.634Z,24.78
2018-05-31T09:10:29.384Z,24.81
2018-05-31T09:11:29.494Z,24.88
2018-05-31T09:12:29.488Z,24.92
2018-05-31T09:13:29.402Z,24.85
2018-05-31T09:14:29.401Z,24.75
2018-05-31T09:15:29.482Z,24.65
2018-05-31T09:16:30.706Z,24.55
2018-05-31T09:17:29.464Z,24.57
2018-05-31T09:18:29.508Z,24.64
2018-05-31T09:19:29.382Z,24.68
2018-05-31T09:20:29.456Z,24.71
2018-05-31T09:21:29.446Z,24.74
2018-05-31T09:22:29.401Z,24.81
2018-05-31T09:23:29.497Z,24.86
2018-05-31T09:24:29.580Z,24.95
2018-05-31T09:25:29.965Z,24.95
2018-05-31T09:26:29.415Z,25.01
2018-05-31T09:27:29.456Z,25.09
2018-05-31T09:28:29.827Z,25.12
2018-05-31T09:29:29.512Z,25.06
2018-05-31T09:30:29.525Z,25.12
2018-05-31T09:31:29.243Z,25.25
2018-05-31T09:32:29.253Z,25.16
2018-05-31T09:33:29.259Z,25.13
2018-05-31T09:34:29.438Z,25.16
2018-05-31T09:35:29.252Z,25.25
2018-05-31T09:36:29.282Z,25.29
2018-05-31T09:37:29.703Z,25.34
2018-05-31T09:38:29.679Z,25.43
2018-05-31T09:39:29.694Z,25.48
2018-05-31T09:40:29.268Z,25.53
2018-05-31T09:41:29.266Z,25.57
2018-05-31T09:42:29.259Z,25.64
2018-05-31T09:43:29.296Z,25.7
2018-05-31T09:44:29.309Z,25.74
2018-05-31T09:45:29.289Z,25.78
2018-05-31T09:46:30.882Z,25.8
2018-05-31T09:47:29.293Z,25.84
2018-05-31T09:48:29.284Z,25.84
2018-05-31T09:49:29.284Z,25.77
2018-05-31T09:50:30.143Z,25.84
2018-05-31T09:51:29.368Z,25.87
2018-05-31T09:52:29.274Z,25.92
2018-05-31T09:53:29.297Z,25.93
2018-05-31T09:54:29.321Z,25.92
2018-05-31T09:55:29.323Z,25.91
2018-05-31T09:56:29.647Z,25.81
2018-05-31T09:57:29.332Z,25.75
2018-05-31T09:58:29.469Z,25.82
2018-05-31T09:59:29.355Z,25.89
2018-05-31T10:00:29.308Z,25.95
2018-05-31T10:01:29.325Z,25.99
2018-05-31T10:02:29.333Z,26.05
2018-05-31T10:03:29.292Z,26.1
2018-05-31T10:04:29.302Z,26.08
2018-05-31T10:05:29.321Z,26.02
2018-05-31T10:06:29.294Z,26.06
2018-05-31T10:07:29.276Z,26.16
2018-05-31T10:08:29.442Z,26.22
2018-05-31T10:09:29.330Z,26.19
2018-05-31T10:10:29.323Z,26.22
2018-05-31T10:11:29.320Z,26.23
2018-05-31T10:12:29.337Z,26.19
2018-05-31T10:13:29.352Z,26.34
2018-05-31T10:14:29.306Z,26.39
2018-05-31T10:15:29.328Z,26.44
2018-05-31T10:16:29.330Z,26.42
2018-05-31T10:17:29.280Z,26.37
2018-05-31T10:18:29.267Z,26.32
2018-05-31T10:19:29.370Z,26.34
2018-05-31T10:20:29.332Z,26.4
2018-05-31T10:21:29.433Z,26.42
2018-05-31T10:22:29.949Z,26.42
2018-05-31T10:23:29.479Z,26.42
2018-05-31T10:24:30.160Z,26.53
2018-05-31T10:25:29.292Z,26.47
2018-05-31T10:26:29.339Z,26.46
2018-05-31T10:27:29.334Z,26.5
2018-05-31T10:28:29.752Z,26.57
2018-05-31T10:29:29.419Z,26.55
2018-05-31T10:30:29.399Z,26.55
2018-05-31T10:31:29.398Z,26.53
2018-05-31T10:32:29.611Z,26.64
2018-05-31T10:33:29.412Z,26.6
2018-05-31T10:34:29.496Z,26.62
2018-05-31T10:35:29.412Z,26.71
2018-05-31T10:36:29.441Z,26.64
2018-05-31T10:37:29.466Z,26.6
2018-05-31T10:38:29.637Z,26.62
2018-05-31T10:39:30.138Z,26.6
2018-05-31T10:40:29.437Z,26.62
2018-05-31T10:41:29.369Z,26.67
2018-05-31T10:42:29.513Z,26.7
2018-05-31T10:43:29.492Z,26.74
2018-05-31T10:44:29.499Z,26.75
2018-05-31T10:45:29.389Z,26.81
2018-05-31T10:46:29.586Z,26.87
2018-05-31T10:47:30.045Z,26.92
2018-05-31T10:48:29.521Z,26.88
2018-05-31T10:49:29.483Z,26.92
2018-05-31T10:50:29.507Z,26.78
2018-05-31T10:51:29.475Z,26.67
2018-05-31T10:52:29.495Z,26.67
2018-05-31T10:53:29.533Z,26.72
2018-05-31T10:54:29.500Z,26.79
2018-05-31T10:55:29.498Z,26.85
2018-05-31T10:56:29.389Z,26.94
2018-05-31T10:57:29.491Z,27.01
2018-05-31T10:58:29.425Z,27.09
2018-05-31T10:59:29.431Z,27.09
2018-05-31T11:00:29.469Z,26.92
2018-05-31T11:01:29.426Z,27.01
2018-05-31T11:02:29.579Z,27.1
2018-05-31T11:03:29.307Z,27.05
2018-05-31T11:04:29.415Z,27.13
2018-05-31T11:05:29.477Z,27.23
2018-05-31T11:06:29.387Z,27.3
2018-05-31T11:07:29.578Z,27.34
2018-05-31T11:08:29.379Z,27.4
2018-05-31T11:09:29.346Z,27.36
2018-05-31T11:10:29.512Z,27.37
2018-05-31T11:11:29.377Z,27.46
2018-05-31T11:12:29.357Z,27.5
2018-05-31T11:13:30.231Z,27.57
2018-05-31T11:14:29.350Z,27.64
2018-05-31T11:15:29.358Z,27.65
2018-05-31T11:16:29.363Z,27.57
2018-05-31T11:17:29.343Z,27.5
2018-05-31T11:18:29.402Z,27.49
2018-05-31T11:19:29.570Z,27.47
2018-05-31T11:20:29.322Z,27.43
2018-05-31T11:21:29.347Z,27.46
2018-05-31T11:22:29.413Z,27.51
2018-05-31T11:23:29.350Z,27.57
2018-05-31T11:24:29.347Z,27.64
2018-05-31T11:25:29.402Z,27.68
2018-05-31T11:26:29.867Z,27.71
2018-05-31T11:27:29.390Z,27.64
2018-05-31T11:28:30.151Z,27.71
2018-05-31T11:29:29.355Z,27.75
2018-05-31T11:30:29.347Z,27.71
2018-05-31T11:31:29.428Z,27.57
2018-05-31T11:32:29.339Z,27.56
2018-05-31T11:33:29.385Z,27.53
2018-05-31T11:34:29.532Z,27.53
2018-05-31T11:35:29.403Z,27.46
2018-05-31T11:36:30.985Z,27.49
2018-05-31T11:37:29.405Z,27.61
2018-05-31T11:38:29.483Z,27.57
2018-05-31T11:39:29.355Z,27.54
2018-05-31T11:40:29.373Z,27.58
2018-05-31T11:41:29.507Z,27.64
2018-05-31T11:42:29.521Z,27.7
2018-05-31T11:43:29.387Z,27.72
2018-05-31T11:44:29.399Z,27.78
2018-05-31T11:45:29.400Z,27.82
2018-05-31T11:46:29.514Z,27.88
2018-05-31T11:47:29.417Z,27.92
2018-05-31T11:48:29.449Z,27.93
2018-05-31T11:49:29.446Z,27.98
2018-05-31T11:50:29.437Z,27.96
2018-05-31T11:51:29.461Z,27.98
2018-05-31T11:52:29.446Z,27.99
2018-05-31T11:53:29.629Z,28.04
2018-05-31T11:54:29.459Z,28.02
2018-05-31T11:55:29.572Z,28.02
2018-05-31T11:56:29.671Z,28.08
2018-05-31T11:57:29.497Z,28.11
2018-05-31T11:58:29.540Z,28.12
2018-05-31T11:59:29.490Z,28.04
2018-05-31T12:00:29.640Z,28.05
2018-05-31T12:01:29.536Z,28.04
2018-05-31T12:02:29.499Z,28.04
2018-05-31T12:03:29.543Z,28.08
2018-05-31T12:04:29.536Z,28.15
2018-05-31T12:05:29.512Z,28.22
2018-05-31T12:06:29.630Z,28.32
2018-05-31T12:07:29.561Z,28.26
2018-05-31T12:08:29.556Z,28.23
2018-05-31T12:09:29.530Z,28.33
2018-05-31T12:10:29.628Z,28.36
2018-05-31T12:11:29.689Z,28.41
2018-05-31T12:12:29.518Z,28.37
2018-05-31T12:13:29.592Z,28.43
2018-05-31T12:14:29.606Z,28.5
2018-05-31T12:15:29.546Z,28.51
2018-05-31T12:16:29.537Z,28.55
2018-05-31T12:17:29.523Z,28.57
2018-05-31T12:18:29.567Z,28.47
2018-05-31T12:19:29.534Z,28.5
2018-05-31T12:20:29.525Z,28.51
2018-05-31T12:21:29.531Z,28.55
2018-05-31T12:22:29.541Z,28.61
2018-05-31T12:23:29.509Z,28.66
2018-05-31T12:24:29.571Z,28.57
2018-05-31T12:25:29.598Z,28.68
2018-05-31T12:26:29.537Z,28.71
2018-05-31T12:27:29.530Z,28.7
2018-05-31T12:28:29.786Z,28.7
2018-05-31T12:29:29.552Z,28.64
2018-05-31T12:30:29.590Z,28.57
2018-05-31T12:31:29.525Z,28.54
2018-05-31T12:32:29.528Z,28.52
2018-05-31T12:33:29.713Z,28.54
2018-05-31T12:34:29.540Z,28.43
2018-05-31T12:35:29.581Z,28.47
2018-05-31T12:36:30.257Z,28.48
2018-05-31T12:37:29.580Z,28.46
2018-05-31T12:38:29.812Z,28.4
2018-05-31T12:39:29.507Z,28.4
2018-05-31T12:40:29.574Z,28.34
2018-05-31T12:41:29.550Z,28.34
2018-05-31T12:42:29.524Z,28.29
2018-05-31T12:43:29.552Z,28.29
2018-05-31T12:44:29.777Z,28.24
2018-05-31T12:45:29.650Z,28.26
2018-05-31T12:46:29.532Z,28.24
2018-05-31T12:47:29.740Z,28.22
2018-05-31T12:48:29.616Z,28.18
2018-05-31T12:49:29.716Z,28.09
2018-05-31T12:50:29.599Z,27.96
2018-05-31T12:51:29.731Z,28.01
2018-05-31T12:52:29.609Z,28.04
2018-05-31T12:53:29.632Z,28.04
2018-05-31T12:54:29.633Z,27.98